Paris-Orly Airport

LFPO · Département de l'Essonne, Région Île-de-France, France

METAR anciennes LFPO · Aéroport de Paris–Orly

Tu vois ci-dessous les METAR des derniers jours. Sélectionne une année pour parcourir les METAR plus anciens, à partir de l'année 2007.

30 novembre 2022

Temps Code Temps Temp. Vue Base cloud Vent METAR/SPECI
01:30
I
6 °C 10 km+ 900 ft 080° 080° 5 kt METAR LFPO 300030Z 08005KT 9999 BKN009 BKN014 06/05 Q1022 NOSIG
01:00
M
6 °C 10 km+ 1.200 ft 090° 090° 3 kt METAR LFPO 300000Z 09003KT 9999 FEW009 BKN012 06/05 Q1022 NOSIG
00:30
M
6 °C 9 km 1.300 ft 080° 080° 2 kt METAR LFPO 292330Z 08002KT 9000 FEW008 BKN013 06/05 Q1022 NOSIG
00:00
M
6 °C 8 km 1.500 ft 070° 070° 4 kt METAR LFPO 292300Z 07004KT 8000 SCT008 BKN015 06/05 Q1022 NOSIG

29 novembre 2022

Temps Code Temps Temp. Vue Base cloud Vent METAR/SPECI
23:30
I
6 °C 7 km 700 ft 080° 080° 4 kt METAR LFPO 292230Z 08004KT 7000 BKN007 BKN016 06/05 Q1022 NOSIG
23:00
I
6 °C 7 km 700 ft 080° 080° 4 kt METAR LFPO 292200Z 08004KT 7000 BKN007 BKN018 06/05 Q1022 NOSIG
22:30
M
6 °C 6 km 2.000 ft 070° 070° 5 kt METAR LFPO 292130Z 07005KT 6000 SCT006 BKN020 06/05 Q1022 NOSIG
22:00
M
6 °C 6 km 2.000 ft 050° 050° 6 kt METAR LFPO 292100Z 05006KT 6000 FEW005 BKN020 06/06 Q1022 NOSIG
21:30
M
7 °C 7 km 2.100 ft 060° 060° 6 kt METAR LFPO 292030Z 06006KT 7000 FEW006 BKN021 07/05 Q1022 NOSIG
21:00
M
7 °C 8 km 2.100 ft 050° 050° 5 kt METAR LFPO 292000Z 05005KT 8000 BKN021 07/05 Q1022 NOSIG
20:30
M
7 °C 8 km 2.100 ft 060° 060° 4 kt METAR LFPO 291930Z 06004KT 8000 BKN021 07/06 Q1022 NOSIG
20:00
M
7 °C 8 km 2.100 ft 070° 070° 4 kt METAR LFPO 291900Z 07004KT 8000 BKN021 07/06 Q1021 NOSIG
19:30
M
7 °C 8 km 1.900 ft 090° 090° 3 kt METAR LFPO 291830Z 09003KT 8000 BKN019 07/06 Q1021 NOSIG
19:00
M
7 °C 8 km 1.800 ft 060° 060° 4 kt METAR LFPO 291800Z 06004KT 8000 BKN018 07/06 Q1021 NOSIG
18:30
M
7 °C 8 km 1.800 ft 080° 080° 3 kt METAR LFPO 291730Z 08003KT 8000 BKN018 07/05 Q1021 NOSIG
18:00
M
7 °C 10 km+ 1.800 ft 070° 070° 3 kt METAR LFPO 291700Z 07003KT 9999 BKN018 07/05 Q1021 NOSIG
17:30
M
7 °C 10 km+ 1.700 ft 050° 050° 3 kt METAR LFPO 291630Z 05003KT 9999 BKN017 07/05 Q1021 NOSIG
17:00
M
8 °C 10 km+ 1.700 ft 080° 080° 3 kt METAR LFPO 291600Z 08003KT 9999 SCT012 BKN017 08/06 Q1020 NOSIG
16:30
M
8 °C 10 km+ 1.800 ft Var 000° 0 kt METAR LFPO 291530Z 00000KT 9999 BKN018 08/06 Q1020 NOSIG
16:00
M
8 °C 10 km+ 1.800 ft 080° 080° 3 kt METAR LFPO 291500Z 08003KT 9999 FEW014 BKN018 08/06 Q1020 NOSIG
15:30
M
9 °C 10 km+ 2.000 ft 070° 070° 5 kt METAR LFPO 291430Z 07005KT 9999 BKN020 09/05 Q1020 NOSIG
15:00
M
9 °C 10 km+ 1.800 ft Var Var 3 kt METAR LFPO 291400Z VRB03KT 9999 FEW012 BKN018 09/06 Q1020 NOSIG
14:30
M
8 °C 10 km+ 2.000 ft Var Var 2 kt METAR LFPO 291330Z VRB02KT 9999 FEW015 BKN020 08/06 Q1020 NOSIG
14:00
M
8 °C 10 km+ 1.900 ft 060° 060° 3 kt METAR LFPO 291300Z 06003KT 020V100 9999 FEW011 BKN019 08/06 Q1020 NOSIG
13:30
M
8 °C 10 km+ 1.800 ft 070° 070° 4 kt METAR LFPO 291230Z 07004KT 050V120 9999 FEW010 BKN018 08/06 Q1020 NOSIG
13:00
M
8 °C 8 km 1.700 ft Var Var 2 kt METAR LFPO 291200Z VRB02KT 8000 FEW009 BKN017 08/06 Q1020 NOSIG
12:30
M
8 °C 7 km 1.700 ft Var Var 2 kt METAR LFPO 291130Z VRB02KT 7000 SCT007 BKN017 08/06 Q1020 NOSIG
12:00
M
7 °C 7 km 1.700 ft Var Var 2 kt METAR LFPO 291100Z VRB02KT 7000 SCT007 BKN017 07/06 Q1019 NOSIG
11:30
M
7 °C 6 km 1.400 ft Var Var 2 kt METAR LFPO 291030Z VRB02KT 6000 SCT006 BKN014 07/06 Q1019 NOSIG
11:00
I
7 °C 4,5 km 1.400 ft 060° 060° 4 kt METAR LFPO 291000Z 06004KT 4500 BR SCT004 BKN014 07/06 Q1019 TEMPO 4000 BR BKN004
10:30
I
7 °C 3 km 1.400 ft 100° 100° 3 kt METAR LFPO 290930Z 10003KT 9999 3000 BR SCT002 BKN014 07/06 Q1019 TEMPO 4000 BR BKN004
10:00
I
7 °C 10 km+ 900 ft Var Var 2 kt METAR LFPO 290900Z VRB02KT 9999 4000NE BR FEW003 BKN009 07/06 Q1018 TEMPO 4000 BR BKN004
09:30
I
6 °C 10 km+ 800 ft 110° 110° 1 kt METAR LFPO 290830Z 11001KT 9999 4000NE BR FEW002 BKN008 06/06 Q1018 TEMPO 4000 BR BKN004
09:00
I
5 °C 10 km+ 800 ft 130° 130° 1 kt METAR LFPO 290800Z 13001KT 9999 R24/1400U MIFG BKN008 05/05 Q1018 TEMPO BKN008
08:30
V
4 °C 10 km+ - Var Var 3 kt METAR LFPO 290730Z VRB03KT 9999 0900NE R02/1600U R25/1300U R07/1800D R24/P2000 R06/P2000 BCFG FEW007 04/04 Q1017 TEMPO BKN008
08:00
V
4 °C 10 km+ - 320° 320° 5 kt METAR LFPO 290700Z 32005KT 9999 MIFG FEW016 04/03 Q1017 NOSIG
07:30
V
5 °C 10 km+ - 320° 320° 4 kt METAR LFPO 290630Z 32004KT 9999 MIFG SCT015 05/04 Q1017 NOSIG
07:00
M
6 °C 10 km+ 1.800 ft 340° 340° 3 kt METAR LFPO 290600Z 34003KT 9999 BKN018 BKN038 06/05 Q1017 NOSIG
06:30
M
7 °C 10 km+ 1.800 ft 320° 320° 3 kt METAR LFPO 290530Z 32003KT 280V350 9999 BKN018 BKN038 07/06 Q1016 NOSIG
06:00
M
7 °C 10 km+ 1.600 ft Var Var 3 kt METAR LFPO 290500Z VRB03KT 9999 BKN016 BKN038 07/06 Q1016 NOSIG
05:30
M
7 °C 10 km+ 1.400 ft Var Var 2 kt METAR LFPO 290430Z VRB02KT 9999 BKN014 BKN038 07/06 Q1016 NOSIG
05:00
M
7 °C 10 km+ 1.300 ft Var Var 3 kt METAR LFPO 290400Z AUTO VRB03KT 9999 BKN013 OVC024 07/06 Q1015 TEMPO 4000 BR BKN005
04:30
M
7 °C 10 km+ 1.300 ft Var 000° 0 kt METAR LFPO 290330Z AUTO 00000KT 9999 BKN013 BKN019 OVC025 07/06 Q1015 TEMPO 4000 BR BKN005
04:00
M
7 °C 10 km+ 1.500 ft 060° 060° 2 kt METAR LFPO 290300Z AUTO 06002KT 9999 SCT010 BKN015 BKN024 07/06 Q1015 TEMPO 4000 BR BECMG BKN010
03:30
M
7 °C 10 km+ 2.300 ft 080° 080° 2 kt METAR LFPO 290230Z AUTO 08002KT 9999 FEW009 BKN023 BKN045 07/06 Q1015 TEMPO 4000 BR BECMG BKN010
03:00
V
7 °C 10 km+ 4.200 ft 250° 250° 3 kt METAR LFPO 290200Z AUTO 25003KT 9999 FEW007 BKN042 BKN050 07/06 Q1015 TEMPO 4000 BR BECMG BKN010
02:30
V
7 °C 10 km+ 4.100 ft 260° 260° 3 kt METAR LFPO 290130Z AUTO 26003KT 9999 FEW027 BKN041 OVC047 07/06 Q1014 TEMPO 4000 BR BECMG BKN010
02:00
V
7 °C 10 km+ 4.000 ft 250° 250° 5 kt METAR LFPO 290100Z 25005KT 9999 FEW008 BKN040 07/06 Q1014 NOSIG
01:30
V
6 °C 10 km+ 4.800 ft 240° 240° 4 kt METAR LFPO 290030Z 24004KT 9999 FEW020 BKN048 06/06 Q1014 NOSIG
01:00
V
6 °C 10 km+ 4.800 ft 240° 240° 5 kt METAR LFPO 290000Z 24005KT 9999 SCT016 BKN048 06/05 Q1014 NOSIG
00:30
V
7 °C 10 km+ 4.800 ft 230° 230° 3 kt METAR LFPO 282330Z 23003KT 9999 SCT016 BKN048 07/06 Q1014 NOSIG
00:00
V
7 °C 10 km+ 4.800 ft Var Var 3 kt METAR LFPO 282300Z VRB03KT 9999 SCT013 BKN048 07/06 Q1014 NOSIG

28 novembre 2022

Temps Code Temps Temp. Vue Base cloud Vent METAR/SPECI
23:30
V
7 °C 10 km+ 14.000 ft 230° 230° 4 kt METAR LFPO 282230Z 23004KT 9999 SCT040 BKN140 07/06 Q1014 NOSIG
23:00
V
7 °C 10 km+ 14.000 ft 170° 170° 3 kt METAR LFPO 282200Z 17003KT 9999 SCT046 BKN140 07/06 Q1014 NOSIG
22:30
V
6 °C 10 km+ 14.000 ft 170° 170° 1 kt METAR LFPO 282130Z 17001KT 9999 SCT046 BKN140 06/06 Q1014 NOSIG
22:00
V
6 °C 10 km+ 14.000 ft Var Var 2 kt METAR LFPO 282100Z VRB02KT 9999 SCT046 BKN140 06/05 Q1014 NOSIG
21:30
V
7 °C 10 km+ - 220° 220° 3 kt METAR LFPO 282030Z 22003KT 190V260 CAVOK 07/06 Q1014 NOSIG
20:30
V
7 °C 10 km+ - 260° 260° 4 kt METAR LFPO 281930Z 26004KT CAVOK 07/06 Q1013 NOSIG
20:00
V
7 °C 10 km+ - 210° 210° 4 kt METAR LFPO 281900Z 21004KT 180V240 CAVOK 07/06 Q1013 NOSIG
19:30
V
7 °C 10 km+ - 240° 240° 6 kt METAR LFPO 281830Z 24006KT 9999 FEW018TCU SCT210 07/05 Q1013 NOSIG
19:00
V
8 °C 10 km+ - 240° 240° 9 kt METAR LFPO 281800Z 24009KT 9999 FEW019TCU 08/06 Q1013 NOSIG
18:30
V
9 °C 10 km+ - 210° 210° 4 kt METAR LFPO 281730Z 21004KT 9999 FEW026 09/06 Q1013 NOSIG
18:00
V
9 °C 10 km+ - 200° 200° 3 kt METAR LFPO 281700Z 20003KT 9999 FEW026 09/06 Q1012 NOSIG
17:30
V
9 °C 10 km+ - 200° 200° 3 kt METAR LFPO 281630Z 20003KT 9999 FEW026 09/07 Q1012 NOSIG
17:00
V
10 °C 10 km+ - 190° 190° 4 kt METAR LFPO 281600Z 19004KT 9999 FEW026 10/07 Q1012 NOSIG
16:30
V
10 °C 10 km+ - 210° 210° 5 kt METAR LFPO 281530Z 21005KT 9999 SCT020 SCT026 10/07 Q1012 NOSIG
16:00
V
10 °C 10 km+ - 200° 200° 5 kt METAR LFPO 281500Z 20005KT 9999 SCT020 SCT030 10/07 Q1012 NOSIG
15:30
M
11 °C 10 km+ 2.000 ft 210° 210° 6 kt METAR LFPO 281430Z 21006KT 180V240 9999 BKN020 BKN200 11/07 Q1012 NOSIG
15:00
V
11 °C 10 km+ 20.000 ft 220° 220° 9 kt METAR LFPO 281400Z 22009KT 9999 SCT018 BKN200 11/07 Q1012 NOSIG
14:30
M
11 °C 10 km+ 1.600 ft 220° 220° 6 kt METAR LFPO 281330Z 22006KT 190V250 9999 BKN016 BKN200 11/07 Q1012 NOSIG
14:00
V
10 °C 10 km+ 20.000 ft 210° 210° 6 kt METAR LFPO 281300Z 21006KT 170V240 9999 SCT016 BKN200 10/07 Q1012 TEMPO BKN012
13:30
M
11 °C 10 km+ 1.500 ft 240° 240° 7 kt METAR LFPO 281230Z 24007KT 9999 BKN015 BKN190 11/07 Q1012 TEMPO BKN012
13:00
M
11 °C 10 km+ 1.400 ft 240° 240° 11 kt METAR LFPO 281200Z 24011KT 9999 BKN014 BKN190 11/08 Q1012 TEMPO BKN012
12:30
V
11 °C 10 km+ 19.000 ft 240° 240° 11 kt METAR LFPO 281130Z 24011KT 9999 SCT012 BKN190 11/08 Q1012 TEMPO BKN012
12:00
V
11 °C 10 km+ 19.000 ft 230° 230° 7 kt METAR LFPO 281100Z 23007KT 9999 FEW011 BKN190 11/08 Q1012 NOSIG
11:30
V
10 °C 10 km+ 19.000 ft 240° 240° 8 kt METAR LFPO 281030Z 24008KT 200V260 9999 FEW010 BKN190 10/08 Q1012 NOSIG
11:00
V
9 °C 10 km+ 22.000 ft 260° 260° 5 kt METAR LFPO 281000Z 26005KT 230V290 9999 FEW009 BKN220 09/08 Q1012 NOSIG
10:30
V
9 °C 10 km+ 14.000 ft 250° 250° 6 kt METAR LFPO 280930Z 25006KT 9999 FEW006 BKN140 09/08 Q1012 NOSIG
10:00
V
8 °C 10 km+ 14.000 ft 210° 210° 4 kt METAR LFPO 280900Z 21004KT 9999 FEW006 BKN140 08/08 Q1012 TEMPO BKN008
09:30
V
8 °C 10 km+ 15.000 ft 210° 210° 4 kt METAR LFPO 280830Z 21004KT 9999 FEW006 BKN150 08/08 Q1012 TEMPO BKN008
09:00
V
8 °C 10 km+ 14.000 ft 230° 230° 5 kt METAR LFPO 280800Z 23005KT 9999 FEW006 BKN140 08/08 Q1012 TEMPO BKN008
08:30
V
8 °C 10 km+ 14.000 ft 250° 250° 7 kt METAR LFPO 280730Z 25007KT 9999 SCT006 BKN140 08/08 Q1012 TEMPO BKN008
08:00
I
9 °C 10 km+ 500 ft 250° 250° 6 kt METAR LFPO 280700Z 25006KT 9999 BKN005 09/08 Q1012 BECMG BKN008
07:30
L
9 °C 10 km+ 400 ft 250° 250° 5 kt METAR LFPO 280630Z 25005KT 9999 BKN004 09/08 Q1011 NOSIG
07:00
L
8 °C 10 km+ 400 ft 250° 250° 5 kt METAR LFPO 280600Z 25005KT 9999 BKN004 08/08 Q1011 NOSIG
06:30
L
8 °C 10 km+ 400 ft 230° 230° 6 kt METAR LFPO 280530Z 23006KT 9999 BKN004 08/08 Q1011 NOSIG
06:00
L
8 °C 10 km+ 400 ft 230° 230° 6 kt METAR LFPO 280500Z 23006KT 9999 BKN004 08/08 Q1011 NOSIG
05:30
L
8 °C 10 km+ 400 ft 210° 210° 4 kt METAR LFPO 280430Z 21004KT 9999 BKN004 08/08 Q1011 NOSIG
05:00
L
8 °C 10 km+ 400 ft 200° 200° 3 kt METAR LFPO 280400Z 20003KT 9999 BKN004 BKN006 08/08 Q1011 NOSIG
04:30
I
8 °C 9 km 600 ft 200° 200° 4 kt METAR LFPO 280330Z 20004KT 170V230 9000 -RA SCT004 BKN006 08/08 Q1011 TEMPO BKN004
04:00
I
8 °C 4 km 600 ft 200° 200° 4 kt METAR LFPO 280300Z 20004KT 170V230 4000 -RA BR SCT004 BKN006 08/08 Q1011 TEMPO BKN004
03:30
I
8 °C 6 km 600 ft 210° 210° 4 kt METAR LFPO 280230Z 21004KT 6000 -DZRA BKN006 08/08 Q1012 NOSIG
03:00
I
8 °C 3,4 km 600 ft 230° 230° 7 kt METAR LFPO 280200Z AUTO 23007KT 190V250 9999 3400 OVC006 08/08 Q1012 TEMPO 4000 -RA BKN003
02:30
I
8 °C 10 km+ 700 ft 220° 220° 4 kt METAR LFPO 280130Z AUTO 22004KT 190V250 9999 OVC007 08/08 Q1011 TEMPO 4000 -RA BKN003
02:00
I
8 °C 10 km+ 700 ft 220° 220° 5 kt METAR LFPO 280100Z AUTO 22005KT 9999 -RA OVC007 08/07 Q1011 TEMPO 4000 -RA
01:30
I
8 °C 10 km+ 800 ft 240° 240° 5 kt METAR LFPO 280030Z AUTO 24005KT 210V270 9999 -RA BKN008 OVC014 08/07 Q1012 TEMPO 4000 -RA
01:00
I
8 °C 8 km 800 ft 240° 240° 7 kt METAR LFPO 280000Z AUTO 24007KT 8000 -RA BKN008 BKN020 BKN045 08/07 Q1012 TEMPO 4000 -RA
00:30
I
8 °C 10 km+ 900 ft 220° 220° 6 kt METAR LFPO 272330Z AUTO 22006KT 9999 -RA BKN009/// OVC014/// //////TCU 08/07 Q1012 TEMPO 4000 -RA BKN006
00:00
M
8 °C 9 km 1.600 ft 200° 200° 8 kt METAR LFPO 272300Z 20008KT 9000 -RA FEW010 BKN016 BKN026 08/07 Q1012 NOSIG

27 novembre 2022

Temps Code Temps Temp. Vue Base cloud Vent METAR/SPECI
23:30
M
8 °C 9 km 1.900 ft 190° 190° 8 kt METAR LFPO 272230Z 19008KT 9000 -RA BKN019 BKN026 08/07 Q1012 NOSIG
22:30
M
8 °C 9 km 2.000 ft 190° 190° 7 kt METAR LFPO 272130Z 19007KT 160V220 9000 -RA BKN020 BKN027 08/07 Q1012 NOSIG
22:00
V
8 °C 10 km+ 6.300 ft 200° 200° 10 kt METAR LFPO 272100Z 20010KT 9999 -RA FEW027 BKN063 08/06 Q1013 NOSIG
21:30
V
8 °C 10 km+ 6.300 ft 190° 190° 9 kt METAR LFPO 272030Z 19009KT 9999 -RA FEW031 BKN063 08/06 Q1013 NOSIG
21:00
V
9 °C 10 km+ 3.100 ft 200° 200° 4 kt METAR LFPO 272000Z 20004KT 170V240 9999 -RA BKN031 BKN040 09/05 Q1013 NOSIG
20:30
M
9 °C 10 km+ 2.800 ft 200° 200° 5 kt METAR LFPO 271930Z 20005KT 9999 BKN028 BKN040 09/05 Q1013 NOSIG
20:00
M
9 °C 10 km+ 2.500 ft 180° 180° 5 kt METAR LFPO 271900Z 18005KT 9999 BKN025 BKN070 09/05 Q1013 NOSIG
19:30
M
9 °C 10 km+ 2.100 ft 150° 150° 6 kt METAR LFPO 271830Z 15006KT 9999 BKN021 BKN070 09/05 Q1013 NOSIG
19:00
V
9 °C 10 km+ 7.300 ft 200° 200° 3 kt METAR LFPO 271800Z 20003KT 180V240 9999 FEW019 BKN073 BKN086 09/05 Q1014 NOSIG
18:30
V
9 °C 10 km+ 6.600 ft 180° 180° 4 kt METAR LFPO 271730Z 18004KT 9999 FEW018 BKN066 BKN086 09/05 Q1014 NOSIG
18:00
V
10 °C 10 km+ 6.600 ft 200° 200° 6 kt METAR LFPO 271700Z 20006KT 9999 FEW020 BKN066 10/05 Q1014 NOSIG
17:30
V
10 °C 10 km+ 6.600 ft 190° 190° 7 kt METAR LFPO 271630Z 19007KT 9999 FEW020 BKN066 10/05 Q1015 NOSIG
17:00
V
10 °C 10 km+ - 190° 190° 6 kt METAR LFPO 271600Z 19006KT CAVOK 10/05 Q1015 NOSIG
16:30
V
10 °C 10 km+ 4.800 ft 190° 190° 7 kt METAR LFPO 271530Z 19007KT 9999 FEW014 BKN048 10/04 Q1015 NOSIG
16:00
V
10 °C 10 km+ 4.600 ft 190° 190° 8 kt METAR LFPO 271500Z 19008KT 9999 FEW015 BKN046 10/05 Q1015 NOSIG
15:30
M
10 °C 10 km+ 2.300 ft 200° 200° 8 kt METAR LFPO 271430Z 20008KT 9999 SCT015 BKN023 10/05 Q1016 NOSIG
15:00
M
10 °C 10 km+ 1.500 ft 190° 190° 6 kt METAR LFPO 271400Z 19006KT 9999 BKN015 10/05 Q1016 NOSIG
14:30
M
10 °C 10 km+ 1.800 ft 190° 190° 8 kt METAR LFPO 271330Z 19008KT 9999 BKN018 10/04 Q1016 NOSIG
14:00
M
10 °C 10 km+ 2.600 ft 190° 190° 8 kt METAR LFPO 271300Z 19008KT 160V220 9999 SCT016 BKN026 10/05 Q1017 NOSIG
13:30
V
9 °C 10 km+ 3.500 ft 180° 180° 8 kt METAR LFPO 271230Z 18008KT 9999 FEW024 BKN035 09/05 Q1017 NOSIG
13:00
V
8 °C 10 km+ 3.800 ft 180° 180° 7 kt METAR LFPO 271200Z 18007KT 9999 OVC038 08/05 Q1018 NOSIG
12:30
V
8 °C 10 km+ 3.900 ft 180° 180° 7 kt METAR LFPO 271130Z 18007KT 9999 OVC039 08/05 Q1019 NOSIG
12:00
V
8 °C 10 km+ 5.000 ft 180° 180° 8 kt METAR LFPO 271100Z 18008KT 9999 SCT036 OVC050 08/06 Q1019 NOSIG
11:30
V
7 °C 10 km+ 4.600 ft 180° 180° 7 kt METAR LFPO 271030Z 18007KT 150V210 9999 SCT036 BKN046 07/05 Q1019 NOSIG
11:00
V
7 °C 10 km+ 3.300 ft 170° 170° 8 kt METAR LFPO 271000Z 17008KT 9999 BKN033 07/06 Q1019 NOSIG

Nous et des tiers suivons ton comportement Internet sur notre site Web à l'aide de cookies. Si tu continues, nous supposons que tu es d'accord avec notre Politique en matière de cookies.